Terminal Aerodrome Forecast
Issued by NWS Wilmington, OH

Current Version | Previous Version | Text Only | Print | Product List | Glossary Off
Versions: 1 2 3 4 5 6 7 8 9 10 11 12 13 14 15 16 17 18 19 20 21 22 23 24 25 26 27 28 29

484
FTUS41 KILN 111144
TAFCVG
TAF
KCVG 111144Z 1112/1218 18009KT P6SM SCT080 BKN150
     FM120300 23010KT P6SM BKN120
     FM120700 28014G22KT P6SM OVC025
     FM120900 29015G25KT P6SM -FZDZ OVC010
     FM121100 30017G30KT 3SM -SHSN SCT015 OVC025
     FM121400 31017G28KT P6SM BKN035=

USA.gov is the U.S. government's official web portal to all federal, state and local government web resources and services.